Main page
METAR-TAF:

METAR-TAF

Airports :

Bolzano, Italy

latitude: 46-28N, longitude: 011-20E, elevation: 262 m

Current weather observation

The report was made 22 minutes ago, at 20:50 UTC
Wind 2 kt from the North
Temperature 2°C
Humidity 93%
Pressure 1018 hPa
Visibility 10 km or more
no clouds below 1500 m and no cumulonimbus

METAR: LIPB 212050Z 35002KT CAVOK 02/01 Q1018

Time: 22:12 (21:12 UTC)

Forecast

The report was made 4 hours and 12 minutes ago, at 17:00 UTC
Forecast valid from 21 at 18 UTC to 22 at 18 UTC
Wind 4 kt from variable directions
Visibility 10 km or more
Few clouds at a height of 6000 ft

TAF: LIPB 211700Z 2118/2218 VRB04KT 9999 FEW060

Weather observations and forecasts of more than 4000 airports (METAR and TAF reports).

The available stations are represented by yellow and red dots on the map.

Hover mouse over dot to see the name of the station.

Then click to see weather observations and forecasts.

To change the map : click on the green buttons with a black cross to zoom in, on the green button with a dash to zoom out, or on the green arrows for adjacent maps.


METAR-TAF: